»·PEaware :: N299PA KFUL-KTOA

N299PA :: KFUL-KTOA

FLIGHT INFORMATION

Flight Status: Arrived
Operator: Privately registered:
United States
More flights under this callsign
Pilot: Derek J. (25717)
Aircraft: PIPER PA-28 CHEROKEE ARCHER
(PA28)
More flights by this aircraft type
Origin: KFUL Fullerton Mun
United States
Destination: KTOA Zamperini
United States
More flights between these airports :: More routes between these airports
Route: SLI
File this flight plan on PilotEdge
Remarks:
Altitude:
(Current/Filed)
4,500ft
Speed:
(Current/Filed)
110kts
Departed: 29-Aug-19 07:44 AM
Arrived: 29-Aug-19 08:00 AM
Distance/Time
Traveled:
19nm/0:16
Distance/Time
To Go:
Arrived

Flight Plot

Page will automatically refresh every two minutes.


Map Options




Map Legend


Flown Route
Filed Route
Departure Airport
Arrival Airport
Navaid (VOR, NDB)
Fix

Horizontal Profiles

Position Reports

Time Latitude Longitude Heading Altitude Ground
Speed
29-Aug-19 06:58 33.872833 -117.983253 80 99ft 0kts
29-Aug-19 06:59 33.872833 -117.983253 80 99ft 0kts
29-Aug-19 07:00 33.872833 -117.983253 80 99ft 0kts
29-Aug-19 07:01 33.872833 -117.983253 80 99ft 0kts
29-Aug-19 07:02 33.872833 -117.983253 80 99ft 0kts
29-Aug-19 07:03 33.872833 -117.983253 80 99ft 0kts
29-Aug-19 07:04 33.872833 -117.983253 80 99ft 0kts
29-Aug-19 07:05 33.872833 -117.983253 80 99ft 0kts
29-Aug-19 07:06 33.872833 -117.983253 80 99ft 0kts
29-Aug-19 07:07 33.872833 -117.983253 80 99ft 0kts
29-Aug-19 07:08 33.872833 -117.983253 80 99ft 0kts
29-Aug-19 07:09 33.872833 -117.983253 80 99ft 0kts
29-Aug-19 07:10 33.872833 -117.983253 80 99ft 0kts
29-Aug-19 07:11 33.872833 -117.983253 80 99ft 0kts
29-Aug-19 07:12 33.872833 -117.983253 80 99ft 0kts
29-Aug-19 07:13 33.872833 -117.983253 80 99ft 0kts
29-Aug-19 07:14 33.872833 -117.983253 80 99ft 0kts
29-Aug-19 07:15 33.872833 -117.983253 80 99ft 0kts
29-Aug-19 07:16 33.872833 -117.983253 80 99ft 0kts
29-Aug-19 07:17 33.872833 -117.983253 80 99ft 0kts
29-Aug-19 07:18 33.872833 -117.983253 80 99ft 0kts
29-Aug-19 07:19 33.872833 -117.983253 80 99ft 0kts
29-Aug-19 07:20 33.872833 -117.983253 80 99ft 0kts
29-Aug-19 07:21 33.872833 -117.983253 80 99ft 0kts
29-Aug-19 07:22 33.872833 -117.983253 80 99ft 0kts
29-Aug-19 07:23 33.872833 -117.983253 80 99ft 0kts
29-Aug-19 07:24 33.872833 -117.983253 80 99ft 0kts
29-Aug-19 07:25 33.872834 -117.983251 80 99ft 0kts
29-Aug-19 07:26 33.872834 -117.983249 80 99ft 0kts
29-Aug-19 07:27 33.872834 -117.983247 80 99ft 0kts
29-Aug-19 07:28 33.872834 -117.983245 80 99ft 0kts
29-Aug-19 07:29 33.872835 -117.983243 80 99ft 0kts
29-Aug-19 07:30 33.872835 -117.983241 80 99ft 0kts
29-Aug-19 07:31 33.872835 -117.983239 80 99ft 0kts
29-Aug-19 07:32 33.872836 -117.983237 80 99ft 0kts
29-Aug-19 07:33 33.872836 -117.983235 80 99ft 0kts
29-Aug-19 07:34 33.872836 -117.983233 80 99ft 0kts
29-Aug-19 07:35 33.872837 -117.983230 80 99ft 0kts
29-Aug-19 07:36 33.872837 -117.983228 80 99ft 0kts
29-Aug-19 07:37 33.872638 -117.983090 168 99ft 4kts
29-Aug-19 07:38 33.871697 -117.984718 188 99ft 5kts
29-Aug-19 07:39 33.871660 -117.984708 155 99ft 0kts
29-Aug-19 07:40 33.871653 -117.984704 155 99ft 0kts
29-Aug-19 07:41 33.871119 -117.984436 81 99ft 1kts
29-Aug-19 07:42 33.871128 -117.984405 71 99ft 0kts
29-Aug-19 07:43 33.874389 -117.967244 77 680ft 66kts
29-Aug-19 07:44 33.888561 -117.954510 345 1417ft 96kts
29-Aug-19 07:45 33.886975 -117.980735 208 2138ft 97kts
29-Aug-19 07:46 33.862084 -117.996565 207 2928ft 101kts
29-Aug-19 07:47 33.836725 -118.011701 206 4051ft 102kts
29-Aug-19 07:48 33.809271 -118.026530 204 4569ft 126kts
29-Aug-19 07:49 33.779880 -118.048289 227 4232ft 126kts
29-Aug-19 07:50 33.769208 -118.084194 265 4167ft 113kts
29-Aug-19 07:51 33.764121 -118.121059 255 3720ft 113kts
29-Aug-19 07:52 33.755571 -118.160887 261 2740ft 112kts
29-Aug-19 07:53 33.750409 -118.193600 260 2424ft 97kts
29-Aug-19 07:54 33.745454 -118.228862 269 2036ft 100kts
29-Aug-19 07:55 33.750522 -118.258350 296 1887ft 89kts
29-Aug-19 07:56 33.765204 -118.282610 312 1448ft 88kts
29-Aug-19 07:57 33.781499 -118.304778 307 815ft 89kts
29-Aug-19 07:58 33.795085 -118.326205 308 354ft 71kts
29-Aug-19 07:59 33.805301 -118.341547 302 106ft 35kts
29-Aug-19 08:00 33.805521 -118.345715 218 106ft 0kts
29-Aug-19 08:01 33.805520 -118.345716 218 106ft 0kts
29-Aug-19 08:02 33.803833 -118.344793 129 106ft 13kts
29-Aug-19 08:03 33.801939 -118.343014 35 106ft 0kts
29-Aug-19 08:04 33.801939 -118.343014 35 106ft 0kts
29-Aug-19 08:05 33.801939 -118.343014 35 106ft 0kts
29-Aug-19 08:06 33.801939 -118.343014 35 106ft 0kts

Navigation Log

Ident Type
Flight plan parsing failed, navigation log unavailable